createdAt,value
2023-07-24T00:01:09.671Z,113.70
2023-07-24T00:03:36.042Z,117.60
2023-07-24T00:06:02.342Z,112.30
2023-07-24T00:08:28.650Z,115.72
2023-07-24T00:10:54.925Z,112.30
2023-07-24T00:13:21.155Z,115.97
2023-07-24T00:15:50.639Z,112.20
2023-07-24T00:18:16.901Z,109.03
2023-07-24T00:20:43.146Z,113.95
2023-07-24T00:23:09.454Z,107.20
2023-07-24T00:25:35.768Z,105.05
2023-07-24T00:28:02.023Z,104.82
2023-07-24T00:30:28.345Z,103.43
2023-07-24T00:32:54.650Z,101.00
2023-07-24T00:35:20.915Z,100.82
2023-07-24T00:37:47.170Z,98.55
2023-07-24T00:40:13.420Z,101.07
2023-07-24T00:42:39.698Z,100.88
2023-07-24T00:45:05.939Z,106.20
2023-07-24T00:47:32.318Z,96.93
2023-07-24T00:49:58.572Z,101.25
2023-07-24T00:52:24.823Z,98.05
2023-07-24T00:54:51.061Z,98.88
2023-07-24T00:57:17.340Z,96.63
2023-07-24T00:59:43.605Z,98.22
2023-07-24T01:02:09.850Z,93.47
2023-07-24T01:04:36.179Z,94.30
2023-07-24T01:07:02.455Z,94.38
2023-07-24T01:09:28.767Z,95.15
2023-07-24T01:11:55.105Z,92.82
2023-07-24T01:14:21.369Z,93.38
2023-07-24T01:16:47.681Z,88.10
2023-07-24T01:19:13.960Z,90.28
2023-07-24T01:21:40.197Z,87.90
2023-07-24T01:24:06.571Z,91.65
2023-07-24T01:26:32.966Z,90.30
2023-07-24T01:28:59.285Z,87.43
2023-07-24T01:31:25.517Z,86.00
2023-07-24T01:33:51.831Z,89.43
2023-07-24T01:36:18.066Z,83.40
2023-07-24T01:38:44.354Z,84.75
2023-07-24T01:41:10.649Z,87.47
2023-07-24T01:43:36.925Z,84.50
2023-07-24T01:46:03.320Z,80.53
2023-07-24T01:48:29.648Z,83.07
2023-07-24T01:50:55.926Z,83.50
2023-07-24T01:53:22.170Z,84.15
2023-07-24T01:55:48.447Z,83.55
2023-07-24T01:58:14.696Z,82.30
2023-07-24T02:00:40.959Z,84.05
2023-07-24T02:03:07.313Z,82.38
2023-07-24T02:05:33.660Z,81.28
2023-07-24T02:08:00.036Z,77.30
2023-07-24T02:10:32.718Z,79.25
2023-07-24T02:12:59.017Z,75.25
2023-07-24T02:15:25.332Z,78.68
2023-07-24T02:17:51.636Z,78.25
2023-07-24T02:20:17.916Z,77.53
2023-07-24T02:22:44.214Z,77.30
2023-07-24T02:25:10.553Z,76.57
2023-07-24T02:27:36.785Z,77.72
2023-07-24T02:30:03.059Z,75.32
2023-07-24T02:32:29.505Z,74.57
2023-07-24T02:34:55.907Z,76.18
2023-07-24T02:37:22.276Z,76.50
2023-07-24T02:39:48.568Z,72.13
2023-07-24T02:42:14.801Z,67.10
2023-07-24T02:44:41.046Z,73.35
2023-07-24T02:47:07.306Z,73.78
2023-07-24T02:49:33.543Z,69.50
2023-07-24T02:51:59.808Z,69.50
2023-07-24T02:54:26.091Z,72.32
2023-07-24T02:56:52.370Z,69.13
2023-07-24T02:59:18.619Z,69.57
2023-07-24T03:01:44.872Z,68.65
2023-07-24T03:04:11.153Z,64.75
2023-07-24T03:06:37.407Z,66.30
2023-07-24T03:09:03.645Z,67.93
2023-07-24T03:11:29.919Z,67.65
2023-07-24T03:13:56.229Z,71.80
2023-07-24T03:16:22.585Z,67.40
2023-07-24T03:18:48.921Z,63.75
2023-07-24T03:21:15.165Z,65.40
2023-07-24T03:23:41.403Z,68.22
2023-07-24T03:26:07.664Z,71.28
2023-07-24T03:28:33.941Z,62.85
2023-07-24T03:31:00.315Z,66.50
2023-07-24T03:33:26.640Z,64.13
2023-07-24T03:35:52.883Z,65.63
2023-07-24T03:38:19.377Z,59.75
2023-07-24T03:40:45.677Z,64.05
2023-07-24T03:43:11.924Z,65.47
2023-07-24T03:45:38.203Z,62.60
2023-07-24T03:48:04.534Z,63.17
2023-07-24T03:50:30.826Z,64.28
2023-07-24T03:52:57.092Z,58.55
2023-07-24T03:55:23.376Z,59.08
2023-07-24T03:57:49.690Z,57.38
2023-07-24T04:00:15.927Z,59.15
2023-07-24T04:02:42.186Z,59.75
2023-07-24T04:05:08.467Z,59.38
2023-07-24T04:07:34.783Z,58.35
2023-07-24T04:10:01.067Z,54.28
2023-07-24T04:12:27.363Z,57.42
2023-07-24T04:14:53.596Z,55.50
2023-07-24T04:17:19.930Z,54.40
2023-07-24T04:19:46.241Z,54.05
2023-07-24T04:22:12.528Z,52.63
2023-07-24T04:24:38.843Z,53.83
2023-07-24T04:27:05.097Z,54.67
2023-07-24T04:29:31.352Z,54.10
2023-07-24T04:31:57.600Z,52.65
2023-07-24T04:34:23.851Z,50.65
2023-07-24T04:36:50.107Z,53.08
2023-07-24T04:39:16.366Z,54.25
2023-07-24T04:41:42.626Z,52.63
2023-07-24T04:44:08.872Z,51.05
2023-07-24T04:46:35.407Z,51.55
2023-07-24T04:49:01.886Z,51.45
2023-07-24T04:51:28.119Z,52.10
2023-07-24T04:53:54.427Z,50.95
2023-07-24T04:56:20.767Z,50.13
2023-07-24T04:58:47.023Z,51.00
2023-07-24T05:01:13.255Z,49.67
2023-07-24T05:03:39.528Z,46.45
2023-07-24T05:06:05.797Z,47.80
2023-07-24T05:08:32.039Z,47.38
2023-07-24T05:10:58.322Z,47.53
2023-07-24T05:13:24.599Z,46.95
2023-07-24T05:15:50.841Z,45.05
2023-07-24T05:18:17.121Z,45.85
2023-07-24T05:20:43.354Z,42.05
2023-07-24T05:23:09.624Z,44.90
2023-07-24T05:25:35.948Z,44.97
2023-07-24T05:28:02.202Z,45.17
2023-07-24T05:30:28.474Z,43.25
2023-07-24T05:32:54.742Z,45.55
2023-07-24T05:35:21.039Z,43.75
2023-07-24T05:37:47.349Z,41.30
2023-07-24T05:40:13.695Z,41.45
2023-07-24T05:42:39.980Z,42.67
2023-07-24T05:45:16.279Z,42.28
2023-07-24T05:47:42.718Z,41.92
2023-07-24T05:50:18.998Z,40.35
2023-07-24T05:52:48.141Z,40.60
2023-07-24T05:55:24.412Z,41.63
2023-07-24T05:57:59.324Z,41.75
2023-07-24T06:00:25.589Z,39.00
2023-07-24T06:02:51.959Z,41.20
2023-07-24T06:05:18.323Z,36.45
2023-07-24T06:07:44.625Z,39.25
2023-07-24T06:10:13.925Z,38.60
2023-07-24T06:12:40.226Z,39.95
2023-07-24T06:15:06.600Z,38.47
2023-07-24T06:17:33.048Z,37.78
2023-07-24T06:19:59.298Z,36.60
2023-07-24T06:22:25.543Z,35.50
2023-07-24T06:24:51.839Z,35.03
2023-07-24T06:27:18.128Z,36.65
2023-07-24T06:29:44.371Z,36.40
2023-07-24T06:32:10.677Z,31.27
2023-07-24T06:34:37.004Z,33.13
2023-07-24T06:37:16.739Z,33.85
2023-07-24T06:39:47.329Z,33.50
2023-07-24T06:42:13.589Z,31.38
2023-07-24T06:44:39.942Z,30.80
2023-07-24T06:47:06.204Z,32.85
2023-07-24T06:49:32.441Z,33.40
2023-07-24T06:51:58.695Z,32.20
2023-07-24T06:54:24.956Z,30.65
2023-07-24T06:56:51.246Z,29.80
2023-07-24T06:59:17.518Z,28.98
2023-07-24T07:01:43.859Z,29.63
2023-07-24T07:04:10.130Z,28.75
2023-07-24T07:06:38.313Z,30.38
2023-07-24T07:09:05.515Z,30.38
2023-07-24T07:11:31.778Z,27.98
2023-07-24T07:13:58.059Z,27.38
2023-07-24T07:16:24.328Z,28.15
2023-07-24T07:18:50.594Z,27.00
2023-07-24T07:21:16.853Z,27.05
2023-07-24T07:23:44.379Z,27.55
2023-07-24T07:26:12.616Z,27.33
2023-07-24T07:28:38.870Z,27.58
2023-07-24T07:31:05.220Z,25.70
2023-07-24T07:33:31.483Z,25.70
2023-07-24T07:35:59.767Z,26.45
2023-07-24T07:38:26.210Z,26.92
2023-07-24T07:40:52.495Z,26.02
2023-07-24T07:43:18.755Z,24.35
2023-07-24T07:45:44.998Z,24.83
2023-07-24T07:48:11.250Z,24.00
2023-07-24T07:50:37.611Z,23.65
2023-07-24T07:53:04.080Z,24.17
2023-07-24T07:55:30.408Z,23.75
2023-07-24T07:57:56.679Z,23.13
2023-07-24T08:00:22.938Z,21.40
2023-07-24T08:02:49.212Z,22.20
2023-07-24T08:05:20.213Z,21.75
2023-07-24T08:07:47.487Z,22.15
2023-07-24T08:10:13.772Z,21.80
2023-07-24T08:12:40.016Z,20.70
2023-07-24T08:15:06.296Z,22.35
2023-07-24T08:17:32.629Z,21.25
2023-07-24T08:19:58.926Z,21.42
2023-07-24T08:22:25.253Z,19.63
2023-07-24T08:24:51.676Z,21.33
2023-07-24T08:27:18.144Z,20.35
2023-07-24T08:29:44.414Z,18.77
2023-07-24T08:32:10.788Z,19.75
2023-07-24T08:34:37.092Z,19.70
2023-07-24T08:37:03.336Z,23.83
2023-07-24T08:39:29.699Z,30.98
2023-07-24T08:41:55.972Z,30.08
2023-07-24T08:44:22.237Z,32.75
2023-07-24T08:46:48.563Z,37.58
2023-07-24T08:49:14.884Z,46.60
2023-07-24T08:51:41.192Z,36.67
2023-07-24T08:54:07.449Z,47.67
2023-07-24T08:56:33.713Z,39.00
2023-07-24T08:58:59.952Z,41.15
2023-07-24T09:01:26.303Z,31.02
2023-07-24T09:03:53.310Z,31.70
2023-07-24T09:06:19.737Z,32.35
2023-07-24T09:08:46.006Z,34.53
2023-07-24T09:11:12.347Z,30.17
2023-07-24T09:13:38.592Z,28.65
2023-07-24T09:16:04.912Z,26.92
2023-07-24T09:18:31.236Z,29.55
2023-07-24T09:20:57.489Z,25.80
2023-07-24T09:23:23.771Z,24.98
2023-07-24T09:25:50.023Z,24.95
2023-07-24T09:28:16.304Z,25.67
2023-07-24T09:30:42.635Z,28.92
2023-07-24T09:33:08.956Z,25.40
2023-07-24T09:35:35.440Z,24.80
2023-07-24T09:38:01.981Z,19.50
2023-07-24T09:40:28.249Z,23.48
2023-07-24T09:45:27.350Z,22.77
2023-07-24T09:47:58.676Z,23.42
2023-07-24T09:50:28.009Z,19.92
2023-07-24T09:52:54.261Z,20.85
2023-07-24T09:55:20.509Z,21.38
2023-07-24T09:57:46.802Z,19.42
2023-07-24T10:00:13.055Z,19.58
2023-07-24T10:02:39.330Z,22.00
2023-07-24T10:05:05.597Z,20.40
2023-07-24T10:07:31.906Z,20.17
2023-07-24T10:09:58.156Z,18.92
2023-07-24T10:12:24.448Z,20.33
2023-07-24T10:14:50.741Z,20.30
2023-07-24T10:17:18.904Z,18.33
2023-07-24T10:19:46.841Z,18.60
2023-07-24T10:22:13.087Z,16.70
2023-07-24T10:24:42.258Z,18.05
2023-07-24T10:27:09.174Z,17.33
2023-07-24T10:29:35.433Z,17.25
2023-07-24T10:32:01.843Z,15.15
2023-07-24T10:34:28.264Z,19.52
2023-07-24T10:36:54.496Z,17.23
2023-07-24T10:39:20.747Z,20.25
2023-07-24T10:41:47.015Z,15.30
2023-07-24T10:44:13.335Z,14.10
2023-07-24T10:46:39.573Z,16.77
2023-07-24T10:49:05.857Z,14.50
2023-07-24T10:51:32.314Z,16.50
2023-07-24T10:53:58.911Z,15.30
2023-07-24T10:56:25.192Z,13.07
2023-07-24T10:58:51.435Z,16.65
2023-07-24T11:01:17.733Z,12.38
2023-07-24T11:03:43.981Z,16.20
2023-07-24T11:06:10.270Z,15.48
2023-07-24T11:08:37.235Z,12.70
2023-07-24T11:11:03.487Z,12.93
2023-07-24T11:13:29.794Z,16.42
2023-07-24T11:15:56.089Z,9.55
2023-07-24T11:18:22.569Z,228.20
2023-07-24T11:20:48.859Z,153.57
2023-07-24T11:23:15.151Z,98.25
2023-07-24T11:25:41.416Z,63.67
2023-07-24T11:28:07.668Z,49.90
2023-07-24T11:30:33.943Z,37.40
2023-07-24T11:33:00.238Z,26.83
2023-07-24T11:35:26.557Z,20.98
2023-07-24T11:37:52.826Z,22.23
2023-07-24T11:40:19.077Z,14.95
2023-07-24T11:42:45.398Z,14.02
2023-07-24T11:45:11.644Z,13.82
2023-07-24T11:47:37.934Z,18.83
2023-07-24T11:50:04.225Z,322.92
2023-07-24T11:52:31.564Z,167.40
2023-07-24T11:54:58.319Z,107.72
2023-07-24T11:57:24.555Z,100.32
2023-07-24T11:59:50.847Z,101.20
2023-07-24T12:02:17.178Z,104.50
2023-07-24T12:04:43.455Z,104.95
2023-07-24T12:07:09.703Z,102.43
2023-07-24T12:12:04.458Z,90.10
2023-07-24T12:14:30.740Z,86.90
2023-07-24T12:16:56.985Z,85.00
2023-07-24T12:19:23.234Z,84.15
2023-07-24T12:21:49.583Z,81.68
2023-07-24T12:24:15.868Z,78.72
2023-07-24T12:26:42.188Z,74.88
2023-07-24T12:29:08.474Z,75.63
2023-07-24T12:31:35.187Z,71.10
2023-07-24T12:34:09.392Z,70.57
2023-07-24T12:36:35.650Z,68.55
2023-07-24T12:39:01.943Z,65.53
2023-07-24T12:41:28.622Z,63.92
2023-07-24T12:43:55.219Z,63.72
2023-07-24T12:46:22.858Z,61.63
2023-07-24T12:48:49.106Z,60.88
2023-07-24T12:51:15.382Z,59.35
2023-07-24T12:53:43.620Z,57.10
2023-07-24T12:56:12.472Z,57.65
2023-07-24T12:58:38.755Z,56.58
2023-07-24T13:01:05.174Z,57.75
2023-07-24T13:03:31.529Z,57.25
2023-07-24T13:05:57.882Z,54.83
2023-07-24T13:08:29.591Z,53.75
2023-07-24T13:10:55.923Z,52.47
2023-07-24T13:13:22.170Z,51.70
2023-07-24T13:15:48.452Z,49.13
2023-07-24T13:18:27.083Z,56.40
2023-07-24T13:23:26.284Z,46.67
2023-07-24T13:25:52.558Z,45.80
2023-07-24T13:28:18.837Z,46.50
2023-07-24T13:30:45.144Z,43.20
2023-07-24T13:33:11.431Z,43.55
2023-07-24T13:35:37.754Z,43.85
2023-07-24T13:38:04.019Z,43.33
2023-07-24T13:40:30.440Z,41.55
2023-07-24T13:42:56.752Z,42.35
2023-07-24T13:45:23.027Z,41.42
2023-07-24T13:47:49.314Z,40.70
2023-07-24T13:50:15.590Z,40.92
2023-07-24T13:52:41.842Z,40.75
2023-07-24T13:55:08.113Z,38.83
2023-07-24T13:57:34.465Z,39.03
2023-07-24T14:00:00.830Z,37.85
2023-07-24T14:02:27.130Z,37.90
2023-07-24T14:04:53.502Z,38.38
2023-07-24T14:07:21.733Z,37.53
2023-07-24T14:09:47.968Z,36.42
2023-07-24T14:12:14.222Z,35.80
2023-07-24T14:14:40.507Z,34.83
2023-07-24T14:17:06.753Z,35.90
2023-07-24T14:19:33.198Z,34.63
2023-07-24T14:21:59.502Z,35.40
2023-07-24T14:24:25.792Z,33.70
2023-07-24T14:26:56.628Z,32.95
2023-07-24T14:29:22.962Z,34.55
2023-07-24T14:31:49.994Z,31.77
2023-07-24T14:34:16.338Z,32.83
2023-07-24T14:36:42.631Z,31.25
2023-07-24T14:39:08.889Z,32.35
2023-07-24T14:41:35.180Z,31.63
2023-07-24T14:44:01.422Z,30.52
2023-07-24T14:46:27.746Z,30.15
2023-07-24T14:48:54.023Z,29.92
2023-07-24T14:51:20.276Z,30.60
2023-07-24T14:53:46.520Z,29.25
2023-07-24T14:56:12.771Z,28.63
2023-07-24T14:58:41.775Z,29.40
2023-07-24T15:01:08.057Z,28.92
2023-07-24T15:03:34.374Z,28.27
2023-07-24T15:06:00.634Z,27.98
2023-07-24T15:08:26.882Z,28.63
2023-07-24T15:10:53.132Z,27.90
2023-07-24T15:13:19.375Z,28.08
2023-07-24T15:15:45.666Z,26.60
2023-07-24T15:18:12.048Z,26.83
2023-07-24T15:20:38.347Z,27.50
2023-07-24T15:23:04.613Z,26.60
2023-07-24T15:25:34.121Z,26.20
2023-07-24T15:28:00.372Z,25.67
2023-07-24T15:30:26.748Z,25.27
2023-07-24T15:32:53.075Z,26.58
2023-07-24T15:35:22.725Z,26.42
2023-07-24T15:37:48.985Z,25.08
2023-07-24T15:40:15.229Z,24.52
2023-07-24T15:42:41.533Z,24.77
2023-07-24T15:45:07.926Z,24.33
2023-07-24T15:47:34.253Z,24.05
2023-07-24T15:50:00.546Z,23.98
2023-07-24T15:52:26.797Z,22.88
2023-07-24T15:54:53.163Z,23.40
2023-07-24T15:57:19.429Z,26.08
2023-07-24T15:59:45.730Z,22.08
2023-07-24T16:02:12.085Z,23.80
2023-07-24T16:04:38.344Z,23.48
2023-07-24T16:07:04.599Z,23.67
2023-07-24T16:09:30.862Z,24.15
2023-07-24T16:11:57.130Z,23.42
2023-07-24T16:14:23.426Z,23.08
2023-07-24T16:16:49.697Z,23.05
2023-07-24T16:19:15.965Z,23.35
2023-07-24T16:21:42.258Z,22.92
2023-07-24T16:24:08.511Z,23.05
2023-07-24T16:26:34.756Z,22.88
2023-07-24T16:29:01.016Z,22.20
2023-07-24T16:31:31.667Z,23.63
2023-07-24T16:34:01.699Z,21.70
2023-07-24T16:36:28.038Z,21.60
2023-07-24T16:38:54.418Z,22.17
2023-07-24T16:41:20.681Z,22.38
2023-07-24T16:43:46.947Z,19.60
2023-07-24T16:48:42.535Z,20.95
2023-07-24T16:51:08.856Z,21.45
2023-07-24T16:53:35.102Z,23.17
2023-07-24T16:56:01.353Z,21.02
2023-07-24T16:58:27.614Z,19.73
2023-07-24T17:00:53.893Z,20.63
2023-07-24T17:03:20.250Z,20.02
2023-07-24T17:05:46.544Z,20.73
2023-07-24T17:08:12.788Z,21.50
2023-07-24T17:10:39.039Z,20.23
2023-07-24T17:13:05.288Z,20.50
2023-07-24T17:15:31.576Z,20.13
2023-07-24T17:17:57.893Z,20.63
2023-07-24T17:20:24.162Z,18.70
2023-07-24T17:22:50.407Z,19.10
2023-07-24T17:25:18.044Z,19.85
2023-07-24T17:27:45.734Z,19.02
2023-07-24T17:30:12.009Z,19.20
2023-07-24T17:32:38.319Z,18.85
2023-07-24T17:35:04.636Z,20.17
2023-07-24T17:37:37.802Z,18.90
2023-07-24T17:40:05.094Z,20.08
2023-07-24T17:42:31.343Z,19.27
2023-07-24T17:44:57.609Z,18.98
2023-07-24T17:47:23.902Z,19.20
2023-07-24T17:50:04.854Z,18.55
2023-07-24T17:52:33.222Z,19.30
2023-07-24T17:54:59.467Z,18.20
2023-07-24T17:57:26.002Z,18.80
2023-07-24T17:59:52.262Z,18.30
2023-07-24T18:02:18.520Z,17.42
2023-07-24T18:04:52.270Z,18.25
2023-07-24T18:07:18.524Z,17.13
2023-07-24T18:09:44.827Z,18.60
2023-07-24T18:12:11.637Z,17.17
2023-07-24T18:14:37.876Z,17.58
2023-07-24T18:17:04.114Z,18.67
2023-07-24T18:19:30.344Z,17.75
2023-07-24T18:21:56.636Z,17.55
2023-07-24T18:24:22.978Z,17.33
2023-07-24T18:26:49.303Z,18.17
2023-07-24T18:29:15.667Z,19.52
2023-07-24T18:31:42.096Z,17.10
2023-07-24T18:34:08.409Z,16.80
2023-07-24T18:36:34.641Z,17.55
2023-07-24T18:39:00.909Z,16.45
2023-07-24T18:41:27.342Z,17.52
2023-07-24T18:43:53.616Z,17.98
2023-07-24T18:46:20.052Z,17.40
2023-07-24T18:48:46.375Z,17.88
2023-07-24T18:51:12.637Z,17.52
2023-07-24T18:53:38.923Z,16.85
2023-07-24T18:56:05.159Z,16.88
2023-07-24T18:58:31.417Z,16.15
2023-07-24T19:00:57.676Z,15.90
2023-07-24T19:03:23.989Z,16.17
2023-07-24T19:05:50.316Z,18.00
2023-07-24T19:08:16.670Z,15.88
2023-07-24T19:10:42.943Z,17.02
2023-07-24T19:13:09.185Z,16.00
2023-07-24T19:15:35.446Z,14.25
2023-07-24T19:18:01.771Z,15.55
2023-07-24T19:20:29.272Z,16.25
2023-07-24T19:22:55.549Z,16.05
2023-07-24T19:25:21.804Z,15.13
2023-07-24T19:27:48.044Z,15.63
2023-07-24T19:30:14.311Z,13.55
2023-07-24T19:32:42.730Z,14.23
2023-07-24T19:35:10.914Z,15.02
2023-07-24T19:37:37.155Z,13.68
2023-07-24T19:40:03.431Z,14.10
2023-07-24T19:42:29.667Z,13.10
2023-07-24T19:44:55.940Z,12.98
2023-07-24T19:47:22.219Z,13.50
2023-07-24T19:49:48.512Z,13.63
2023-07-24T19:52:14.755Z,11.10
2023-07-24T19:54:41.005Z,13.82
2023-07-24T19:57:07.282Z,13.35
2023-07-24T19:59:33.542Z,14.65
2023-07-24T20:01:59.877Z,11.63
2023-07-24T20:04:26.165Z,15.20
2023-07-24T20:06:52.421Z,12.02
2023-07-24T20:09:18.685Z,11.25
2023-07-24T20:11:47.328Z,12.23
2023-07-24T20:14:15.255Z,11.63
2023-07-24T20:16:41.534Z,11.05
2023-07-24T20:19:08.092Z,11.07
2023-07-24T20:21:34.347Z,10.05
2023-07-24T20:24:00.627Z,11.10
2023-07-24T20:26:26.928Z,11.15
2023-07-24T20:28:53.397Z,11.63
2023-07-24T20:31:19.756Z,10.88
2023-07-24T20:33:48.117Z,12.90
2023-07-24T20:36:14.405Z,10.15
2023-07-24T20:38:40.690Z,9.88
2023-07-24T20:41:06.946Z,11.88
2023-07-24T20:43:33.205Z,9.77
2023-07-24T20:45:59.504Z,11.48
2023-07-24T20:48:25.991Z,11.02
2023-07-24T20:50:52.314Z,9.98
2023-07-24T20:53:18.608Z,10.93
2023-07-24T20:55:44.874Z,9.60
2023-07-24T20:58:11.127Z,9.05
2023-07-24T21:00:37.380Z,9.93
2023-07-24T21:03:03.833Z,10.35
2023-07-24T21:05:30.191Z,9.57
2023-07-24T21:07:56.536Z,9.90
2023-07-24T21:10:22.887Z,9.27
2023-07-24T21:12:50.132Z,10.20
2023-07-24T21:15:16.447Z,9.85
2023-07-24T21:17:42.852Z,9.30
2023-07-24T21:20:11.379Z,9.73
2023-07-24T21:22:37.636Z,9.35
2023-07-24T21:25:03.878Z,9.35
2023-07-24T21:27:30.158Z,8.25
2023-07-24T21:29:56.451Z,8.25
2023-07-24T21:32:22.789Z,8.73
2023-07-24T21:34:49.086Z,8.30
2023-07-24T21:37:15.344Z,9.73
2023-07-24T21:39:41.599Z,9.32
2023-07-24T21:42:07.971Z,7.72
2023-07-24T21:44:34.241Z,8.82
2023-07-24T21:47:00.518Z,9.52
2023-07-24T21:49:26.798Z,8.05
2023-07-24T21:51:53.052Z,8.70
2023-07-24T21:54:19.300Z,10.55
2023-07-24T21:56:45.535Z,9.23
2023-07-24T21:59:11.792Z,8.40
2023-07-24T22:01:38.158Z,7.93
2023-07-24T22:04:05.056Z,7.95
2023-07-24T22:06:31.424Z,8.70
2023-07-24T22:08:57.745Z,8.43
2023-07-24T22:11:24.059Z,7.88
2023-07-24T22:13:50.308Z,8.52
2023-07-24T22:16:16.610Z,9.13
2023-07-24T22:18:42.907Z,7.82
2023-07-24T22:21:09.202Z,10.43
2023-07-24T22:23:35.447Z,8.07
2023-07-24T22:26:01.676Z,8.50
2023-07-24T22:28:27.930Z,8.38
2023-07-24T22:30:54.210Z,7.18
2023-07-24T22:33:20.484Z,7.65
2023-07-24T22:35:46.786Z,7.30
2023-07-24T22:38:13.049Z,6.95
2023-07-24T22:40:39.305Z,7.70
2023-07-24T22:43:05.627Z,7.78
2023-07-24T22:45:31.959Z,7.47
2023-07-24T22:47:58.395Z,7.45
2023-07-24T22:50:24.736Z,7.07
2023-07-24T22:52:50.982Z,7.85
2023-07-24T22:55:17.294Z,6.40
2023-07-24T22:57:43.646Z,9.65
2023-07-24T23:00:09.918Z,8.13
2023-07-24T23:02:36.214Z,8.05
2023-07-24T23:05:02.493Z,7.22
2023-07-24T23:07:28.742Z,7.13
2023-07-24T23:09:54.991Z,6.97
2023-07-24T23:12:21.229Z,7.18
2023-07-24T23:14:47.490Z,7.00
2023-07-24T23:17:13.737Z,6.55
2023-07-24T23:19:40.019Z,5.95
2023-07-24T23:22:06.302Z,7.53
2023-07-24T23:24:32.600Z,7.25
2023-07-24T23:26:58.873Z,7.13
2023-07-24T23:29:25.115Z,6.43
2023-07-24T23:31:51.355Z,6.93
2023-07-24T23:34:17.610Z,6.18
2023-07-24T23:36:46.634Z,7.47
2023-07-24T23:39:12.935Z,6.65
2023-07-24T23:41:39.212Z,6.57
2023-07-24T23:44:05.463Z,6.10
2023-07-24T23:46:31.955Z,6.18
2023-07-24T23:48:58.324Z,7.35
2023-07-24T23:51:24.566Z,5.97
2023-07-24T23:53:52.919Z,6.82
2023-07-24T23:56:19.170Z,5.93
2023-07-24T23:58:45.412Z,7.18
